createdAt,value
2018-01-31T01:53:51.282Z,10.40
2018-01-31T01:56:18.725Z,10.53
2018-01-31T01:58:46.194Z,11.23
2018-01-31T02:01:13.670Z,11.70
2018-01-31T02:03:41.544Z,11.30
2018-01-31T02:06:08.982Z,9.40
2018-01-31T02:08:36.493Z,10.73
2018-01-31T02:11:03.951Z,10.37
2018-01-31T02:13:31.423Z,10.52
2018-01-31T02:15:58.861Z,10.00
2018-01-31T02:18:26.358Z,9.63
2018-01-31T02:20:53.814Z,10.77
2018-01-31T02:23:21.257Z,9.50
2018-01-31T02:25:48.700Z,9.17
2018-01-31T02:28:16.146Z,7.90
2018-01-31T02:30:43.632Z,8.02
2018-01-31T02:33:11.063Z,7.87
2018-01-31T02:35:38.538Z,9.10
2018-01-31T02:38:05.969Z,8.30
2018-01-31T02:40:33.412Z,7.27
2018-01-31T02:43:00.935Z,7.20
2018-01-31T02:45:28.402Z,8.52
2018-01-31T02:47:55.860Z,7.73
2018-01-31T02:50:23.336Z,7.15
2018-01-31T02:52:50.768Z,7.80
2018-01-31T02:55:18.288Z,7.20
2018-01-31T02:57:47.116Z,6.90
2018-01-31T03:00:14.568Z,7.63
2018-01-31T03:02:42.015Z,6.80
2018-01-31T03:05:09.489Z,6.73
2018-01-31T03:07:37.144Z,7.47
2018-01-31T03:10:04.607Z,7.53
2018-01-31T03:12:32.122Z,7.20
2018-01-31T03:14:59.577Z,6.90
2018-01-31T03:17:28.573Z,6.00
2018-01-31T03:19:56.000Z,7.20
2018-01-31T03:22:23.449Z,7.35
2018-01-31T03:24:50.870Z,6.63
2018-01-31T03:27:18.317Z,6.73
2018-01-31T03:29:45.876Z,6.80
2018-01-31T03:32:13.492Z,6.37
2018-01-31T03:34:40.976Z,6.97
2018-01-31T03:37:08.433Z,7.20
2018-01-31T03:39:35.860Z,7.45
2018-01-31T03:42:03.315Z,7.03
2018-01-31T03:44:30.749Z,6.12
2018-01-31T03:46:58.179Z,6.03
2018-01-31T03:49:25.637Z,5.62
2018-01-31T03:51:53.154Z,5.73
2018-01-31T03:54:20.604Z,5.95
2018-01-31T03:56:48.093Z,5.50
2018-01-31T03:59:16.048Z,5.63
2018-01-31T04:01:43.491Z,6.27
2018-01-31T04:04:10.944Z,6.10
2018-01-31T04:06:38.387Z,6.70
2018-01-31T04:09:05.833Z,5.93
2018-01-31T04:11:33.282Z,5.10
2018-01-31T04:14:00.744Z,5.10
2018-01-31T04:16:28.161Z,4.90
2018-01-31T04:18:55.604Z,5.83
2018-01-31T04:21:23.104Z,4.97
2018-01-31T04:23:50.577Z,5.60
2018-01-31T04:26:18.031Z,4.60
2018-01-31T04:28:46.230Z,4.97
2018-01-31T04:31:13.666Z,4.27
2018-01-31T04:33:41.147Z,4.90
2018-01-31T04:36:08.604Z,5.60
2018-01-31T04:38:36.039Z,5.57
2018-01-31T04:41:03.493Z,5.20
2018-01-31T04:43:30.918Z,4.82
2018-01-31T04:45:58.387Z,4.80
2018-01-31T04:48:25.825Z,4.73
2018-01-31T04:50:53.265Z,4.80
2018-01-31T04:53:20.780Z,4.70
2018-01-31T04:55:48.245Z,4.70
2018-01-31T04:58:16.410Z,4.20
2018-01-31T05:00:43.909Z,3.80
2018-01-31T05:03:11.336Z,4.60
2018-01-31T05:05:38.786Z,4.20
2018-01-31T05:08:06.453Z,4.67
2018-01-31T05:10:33.893Z,4.00
2018-01-31T05:13:01.316Z,3.83
2018-01-31T05:15:28.759Z,3.33
2018-01-31T05:17:56.442Z,3.30
2018-01-31T05:20:23.932Z,3.72
2018-01-31T05:22:51.352Z,3.47
2018-01-31T05:25:18.846Z,3.30
2018-01-31T05:27:46.689Z,3.40
2018-01-31T05:30:14.130Z,2.77
2018-01-31T05:32:41.596Z,3.45
2018-01-31T05:35:09.033Z,3.00
2018-01-31T05:37:36.489Z,3.47
2018-01-31T05:40:03.946Z,3.40
2018-01-31T05:42:31.408Z,3.40
2018-01-31T05:44:58.876Z,3.33
2018-01-31T05:47:26.337Z,2.73
2018-01-31T05:49:53.761Z,2.80
2018-01-31T05:52:21.281Z,3.35
2018-01-31T05:54:48.695Z,3.73
2018-01-31T05:57:17.139Z,3.72
2018-01-31T05:59:44.577Z,3.60
2018-01-31T06:02:12.028Z,3.33
2018-01-31T06:04:39.464Z,3.33
2018-01-31T06:07:06.909Z,3.07
2018-01-31T06:09:34.718Z,3.33
2018-01-31T06:12:02.113Z,3.60
2018-01-31T06:14:29.544Z,3.80
2018-01-31T06:16:56.992Z,4.00
2018-01-31T06:19:24.436Z,3.43
2018-01-31T06:21:51.874Z,3.03
2018-01-31T06:24:19.324Z,4.03
2018-01-31T06:26:46.804Z,3.60
2018-01-31T06:29:14.282Z,3.40
2018-01-31T06:31:41.716Z,4.40
2018-01-31T06:34:09.156Z,4.00
2018-01-31T06:36:36.607Z,3.93
2018-01-31T06:39:04.056Z,3.80
2018-01-31T06:41:31.491Z,4.60
2018-01-31T06:43:59.033Z,4.25
2018-01-31T06:46:26.533Z,3.65
2018-01-31T07:01:46.449Z,5.07
2018-01-31T07:04:13.920Z,4.37
2018-01-31T07:06:41.357Z,3.97
2018-01-31T07:09:08.915Z,4.27
2018-01-31T07:11:36.343Z,3.33
2018-01-31T07:14:03.790Z,3.83
2018-01-31T07:16:31.308Z,4.07
2018-01-31T07:18:58.821Z,3.40
2018-01-31T07:21:26.268Z,3.45
2018-01-31T07:23:54.099Z,3.67
2018-01-31T07:26:21.664Z,3.30
2018-01-31T07:28:49.235Z,3.47
2018-01-31T07:31:17.184Z,2.95
2018-01-31T07:33:44.718Z,3.10
2018-01-31T07:36:12.180Z,3.22
2018-01-31T07:38:39.641Z,3.20
2018-01-31T07:41:07.094Z,3.20
2018-01-31T07:43:34.522Z,3.20
2018-01-31T07:46:02.091Z,2.87
2018-01-31T07:48:29.650Z,3.75
2018-01-31T07:50:57.105Z,2.90
2018-01-31T07:53:24.527Z,3.37
2018-01-31T07:55:51.975Z,3.40
2018-01-31T07:58:19.477Z,2.37
2018-01-31T08:00:47.435Z,3.43
2018-01-31T08:03:15.011Z,3.07
2018-01-31T08:05:42.502Z,2.90
2018-01-31T08:08:10.104Z,2.77
2018-01-31T08:10:37.706Z,3.10
2018-01-31T08:13:05.141Z,2.72
2018-01-31T08:15:32.626Z,2.15
2018-01-31T08:18:00.046Z,2.20
2018-01-31T08:20:27.491Z,2.60
2018-01-31T08:22:54.926Z,2.80
2018-01-31T08:25:22.392Z,2.35
2018-01-31T08:27:52.926Z,2.40
2018-01-31T08:30:28.613Z,2.20
2018-01-31T08:32:56.354Z,2.20
2018-01-31T08:35:23.869Z,2.70
2018-01-31T08:37:51.312Z,2.60
2018-01-31T08:40:18.833Z,2.13
2018-01-31T08:42:46.281Z,2.30
2018-01-31T08:45:13.726Z,1.77
2018-01-31T08:47:41.183Z,2.10
2018-01-31T08:50:08.640Z,2.40
2018-01-31T08:52:36.100Z,1.70
2018-01-31T08:55:03.532Z,1.67
2018-01-31T08:57:31.006Z,2.12
2018-01-31T08:59:58.433Z,1.87
2018-01-31T09:02:25.889Z,1.83
2018-01-31T09:04:53.315Z,1.90
2018-01-31T09:07:20.881Z,1.43
2018-01-31T09:09:48.500Z,1.77
2018-01-31T09:12:16.020Z,1.80
2018-01-31T09:14:43.497Z,1.87
2018-01-31T09:17:10.959Z,1.70
2018-01-31T09:19:38.411Z,1.20
2018-01-31T09:22:05.831Z,1.40
2018-01-31T09:24:33.273Z,1.40
2018-01-31T09:27:00.712Z,1.60
2018-01-31T09:29:28.145Z,1.47
2018-01-31T09:31:55.582Z,1.13
2018-01-31T09:34:23.052Z,1.40
2018-01-31T09:36:50.489Z,1.00
2018-01-31T09:39:18.889Z,1.10
2018-01-31T09:41:46.446Z,1.00
2018-01-31T09:44:13.883Z,0.80
2018-01-31T09:46:41.367Z,1.10
2018-01-31T09:49:08.786Z,0.93
2018-01-31T09:51:36.254Z,0.90
2018-01-31T09:54:03.712Z,0.80
2018-01-31T09:56:31.204Z,0.93
2018-01-31T09:58:58.778Z,1.30
2018-01-31T10:01:26.332Z,0.90
2018-01-31T10:03:54.086Z,1.00
2018-01-31T10:06:21.541Z,0.77
2018-01-31T10:08:48.989Z,1.00
2018-01-31T10:11:16.433Z,1.13
2018-01-31T10:13:43.881Z,0.80
2018-01-31T10:16:11.363Z,0.70
2018-01-31T10:18:38.794Z,1.12
2018-01-31T10:21:06.690Z,1.00
2018-01-31T10:23:34.156Z,0.90
2018-01-31T10:26:01.604Z,1.00
2018-01-31T10:28:29.146Z,1.20
2018-01-31T10:30:56.568Z,2.57
2018-01-31T10:33:24.028Z,1.60
2018-01-31T10:35:51.604Z,2.50
2018-01-31T10:38:19.090Z,1.67
2018-01-31T10:40:46.815Z,2.33
2018-01-31T10:43:14.303Z,1.50
2018-01-31T10:45:41.975Z,0.80
2018-01-31T10:48:09.529Z,1.23
2018-01-31T10:50:37.001Z,1.35
2018-01-31T10:53:04.466Z,1.10
2018-01-31T10:57:28.703Z,1.50
2018-01-31T10:57:59.489Z,1.70
2018-01-31T11:00:27.644Z,1.37
2018-01-31T11:02:55.076Z,1.63
2018-01-31T11:05:22.514Z,1.70
2018-01-31T11:07:52.236Z,1.93
2018-01-31T11:10:19.674Z,1.97
2018-01-31T11:12:47.090Z,2.25
2018-01-31T11:15:14.547Z,2.13
2018-01-31T11:17:41.982Z,1.87
2018-01-31T11:20:09.443Z,2.10
2018-01-31T11:22:36.921Z,2.17
2018-01-31T11:25:04.378Z,2.00
2018-01-31T11:27:32.157Z,1.80
2018-01-31T11:29:59.579Z,2.53
2018-01-31T11:32:27.064Z,4.45
2018-01-31T11:34:54.491Z,2.97
2018-01-31T11:37:21.932Z,2.00
2018-01-31T11:39:49.431Z,2.37
2018-01-31T11:42:16.869Z,1.37
2018-01-31T11:44:44.296Z,1.20
2018-01-31T11:47:11.752Z,1.33
2018-01-31T11:49:39.195Z,0.93
2018-01-31T11:52:06.651Z,1.27
2018-01-31T11:54:34.067Z,1.10
2018-01-31T11:57:01.609Z,1.55
2018-01-31T11:59:29.077Z,1.17
2018-01-31T12:01:56.609Z,1.58
2018-01-31T12:04:25.178Z,1.23
2018-01-31T12:06:52.696Z,1.10
2018-01-31T12:09:31.994Z,1.27
2018-01-31T12:11:59.456Z,1.25
2018-01-31T12:14:38.729Z,1.37
2018-01-31T12:17:13.058Z,1.52
2018-01-31T12:20:06.277Z,1.27
2018-01-31T12:22:45.473Z,1.67
2018-01-31T12:25:24.656Z,1.43
2018-01-31T12:28:04.044Z,1.50
2018-01-31T12:30:58.200Z,1.50
2018-01-31T12:33:37.497Z,1.40
2018-01-31T12:36:16.810Z,1.80
2018-01-31T12:38:56.106Z,2.03
2018-01-31T12:41:23.069Z,1.88
2018-01-31T12:43:50.016Z,1.77
2018-01-31T12:46:29.320Z,1.60
2018-01-31T12:49:01.564Z,2.20
2018-01-31T12:51:45.361Z,1.65
2018-01-31T12:54:25.349Z,1.80
2018-01-31T12:57:04.528Z,2.30
2018-01-31T12:59:43.840Z,2.57
2018-01-31T13:02:23.161Z,2.27
2018-01-31T13:05:04.199Z,2.50
2018-01-31T13:07:43.462Z,2.80
2018-01-31T13:10:22.706Z,2.73
2018-01-31T13:13:01.906Z,2.20
2018-01-31T13:29:14.477Z,2.80
2018-01-31T13:31:59.569Z,2.80
2018-01-31T13:34:38.802Z,3.07
2018-01-31T13:37:23.633Z,3.07
2018-01-31T13:40:02.626Z,3.33
2018-01-31T13:56:17.995Z,3.03
2018-01-31T13:58:57.161Z,2.67
2018-01-31T14:01:36.375Z,2.95
2018-01-31T14:04:15.570Z,4.87
2018-01-31T14:06:54.657Z,6.20
2018-01-31T14:09:33.824Z,3.27
2018-01-31T14:12:12.957Z,3.20
2018-01-31T14:28:20.626Z,2.87
2018-01-31T14:30:59.882Z,3.27
2018-01-31T14:33:40.659Z,3.33
2018-01-31T14:36:17.093Z,2.87
2018-01-31T14:38:49.677Z,3.23
2018-01-31T14:41:18.521Z,2.90
2018-01-31T14:43:45.431Z,3.30
2018-01-31T14:46:12.317Z,3.83
2018-01-31T14:48:39.245Z,3.17
2018-01-31T14:51:06.191Z,2.97
2018-01-31T14:53:33.106Z,3.37
2018-01-31T14:56:00.004Z,3.70
2018-01-31T14:58:26.918Z,3.40
2018-01-31T15:00:53.793Z,3.10
2018-01-31T15:03:20.728Z,3.70
2018-01-31T15:05:48.656Z,2.87
2018-01-31T15:08:15.582Z,2.90
2018-01-31T15:10:42.460Z,2.70
2018-01-31T15:13:09.455Z,3.10
2018-01-31T15:15:36.388Z,2.63
2018-01-31T15:18:03.337Z,2.87
2018-01-31T15:20:30.219Z,3.07
2018-01-31T15:22:57.152Z,2.72
2018-01-31T15:25:24.432Z,2.30
2018-01-31T15:27:51.330Z,2.70
2018-01-31T15:30:18.820Z,2.40
2018-01-31T15:32:45.743Z,2.50
2018-01-31T15:35:12.678Z,1.98
2018-01-31T15:37:39.662Z,1.95
2018-01-31T15:40:06.577Z,2.00
2018-01-31T15:42:33.464Z,2.50
2018-01-31T15:45:00.363Z,2.70
2018-01-31T15:47:27.241Z,1.70
2018-01-31T15:49:54.159Z,2.30
2018-01-31T15:52:21.108Z,2.43
2018-01-31T15:54:48.891Z,2.33
2018-01-31T15:57:15.796Z,2.45
2018-01-31T15:59:42.752Z,2.60
2018-01-31T16:02:09.693Z,2.57
2018-01-31T16:04:36.568Z,2.50
2018-01-31T16:07:03.492Z,3.08
2018-01-31T16:09:31.318Z,2.40
2018-01-31T16:11:58.220Z,2.13
2018-01-31T16:14:27.155Z,2.70
2018-01-31T16:16:54.588Z,2.57
2018-01-31T16:19:33.948Z,2.63
2018-01-31T16:22:01.384Z,2.33
2018-01-31T16:24:28.814Z,1.75
2018-01-31T16:26:56.261Z,2.20
2018-01-31T16:29:39.339Z,2.03
2018-01-31T16:32:18.512Z,2.50
2018-01-31T16:34:46.464Z,2.50
2018-01-31T16:37:13.906Z,1.87
2018-01-31T16:39:41.331Z,2.23
2018-01-31T16:42:08.768Z,2.00
2018-01-31T16:44:36.205Z,2.10
2018-01-31T16:47:03.623Z,2.12
2018-01-31T16:49:31.043Z,2.10
2018-01-31T16:51:58.512Z,2.10
2018-01-31T16:54:25.952Z,2.87
2018-01-31T16:56:53.377Z,2.00
2018-01-31T16:59:20.840Z,2.00
2018-01-31T17:01:48.604Z,3.43
2018-01-31T17:04:16.060Z,2.33
2018-01-31T17:06:43.588Z,2.37
2018-01-31T17:09:11.069Z,2.27
2018-01-31T17:11:38.509Z,2.83
2018-01-31T17:14:05.957Z,2.72
2018-01-31T17:16:33.393Z,3.57
2018-01-31T17:19:01.721Z,2.50
2018-01-31T17:21:29.391Z,2.17
2018-01-31T17:23:56.867Z,2.90
2018-01-31T17:26:24.303Z,2.50
2018-01-31T17:28:51.799Z,1.95
2018-01-31T17:31:20.123Z,2.73
2018-01-31T17:33:48.175Z,2.70
2018-01-31T17:36:15.657Z,5.80
2018-01-31T17:38:43.168Z,2.30
2018-01-31T17:41:11.609Z,2.87
2018-01-31T17:43:39.060Z,3.35
2018-01-31T17:46:06.541Z,4.50
2018-01-31T17:48:34.109Z,4.55
2018-01-31T17:51:01.540Z,3.10
2018-01-31T17:53:28.977Z,3.67
2018-01-31T17:55:56.397Z,2.60
2018-01-31T17:58:23.820Z,3.45
2018-01-31T18:00:52.168Z,10.73
2018-01-31T18:03:21.317Z,3.40
2018-01-31T18:05:49.232Z,8.10
2018-01-31T18:08:16.656Z,2.73
2018-01-31T18:10:44.229Z,3.80
2018-01-31T18:13:11.691Z,4.27
2018-01-31T18:15:39.116Z,3.30
2018-01-31T18:18:06.551Z,4.97
2018-01-31T18:20:34.171Z,2.62
2018-01-31T18:23:01.625Z,3.67
2018-01-31T18:25:29.112Z,2.17
2018-01-31T18:27:56.569Z,2.50
2018-01-31T18:30:24.021Z,2.72
2018-01-31T18:32:51.443Z,3.13
2018-01-31T18:35:18.913Z,2.60
2018-01-31T18:37:46.343Z,3.33
2018-01-31T18:40:13.794Z,3.13
2018-01-31T18:42:41.439Z,2.50
2018-01-31T18:45:08.992Z,2.93
2018-01-31T18:47:37.429Z,3.77
2018-01-31T18:50:05.603Z,2.78
2018-01-31T18:52:34.000Z,3.42
2018-01-31T18:55:02.626Z,2.90
2018-01-31T18:57:32.578Z,6.40
2018-01-31T19:00:00.044Z,6.18
2018-01-31T19:02:30.069Z,3.23
2018-01-31T19:04:57.655Z,2.30
2018-01-31T19:07:26.797Z,4.93
2018-01-31T19:09:58.345Z,4.70
2018-01-31T19:12:27.081Z,5.94
2018-01-31T19:14:56.256Z,2.67
2018-01-31T19:17:23.765Z,4.27
2018-01-31T19:19:52.236Z,19.70
2018-01-31T19:22:23.993Z,3.72
2018-01-31T19:24:51.878Z,3.03
2018-01-31T19:27:19.372Z,4.20
2018-01-31T19:29:48.743Z,4.03
2018-01-31T19:32:16.532Z,2.73
2018-01-31T19:34:44.371Z,3.87
2018-01-31T19:37:11.876Z,7.20
2018-01-31T19:39:39.428Z,3.20
2018-01-31T19:42:06.972Z,2.87
2018-01-31T19:44:34.532Z,2.12
2018-01-31T19:47:02.005Z,2.63
2018-01-31T19:49:29.552Z,2.70
2018-01-31T19:51:56.994Z,2.37
2018-01-31T19:54:25.317Z,5.50
2018-01-31T19:56:52.862Z,3.13
2018-01-31T19:59:20.513Z,3.08
2018-01-31T20:01:47.930Z,4.07
2018-01-31T20:04:15.424Z,10.10
2018-01-31T20:06:42.955Z,3.43
2018-01-31T20:09:10.617Z,3.15
2018-01-31T20:11:38.113Z,2.37
2018-01-31T20:14:05.826Z,2.47
2018-01-31T20:16:33.388Z,2.50
2018-01-31T20:19:00.896Z,1.33
2018-01-31T20:21:28.380Z,2.03
2018-01-31T20:23:55.848Z,1.73
2018-01-31T20:26:23.361Z,2.03
2018-01-31T20:28:50.949Z,1.60
2018-01-31T20:31:19.074Z,1.10
2018-01-31T20:33:46.550Z,1.20
2018-01-31T20:36:14.000Z,1.47
2018-01-31T20:38:41.422Z,1.00
2018-01-31T20:41:08.856Z,1.17
2018-01-31T20:43:36.404Z,1.87
2018-01-31T20:46:03.977Z,1.40
2018-01-31T20:48:31.420Z,2.50
2018-01-31T20:50:58.876Z,1.10
2018-01-31T20:53:26.380Z,1.73
2018-01-31T20:55:53.860Z,0.80
2018-01-31T20:58:21.329Z,1.10
2018-01-31T21:00:48.925Z,1.00
2018-01-31T21:03:16.404Z,1.57
2018-01-31T21:05:43.837Z,3.10
2018-01-31T21:08:11.399Z,2.13
2018-01-31T21:10:38.794Z,2.83
2018-01-31T21:13:06.216Z,1.15
2018-01-31T21:15:34.114Z,2.22
2018-01-31T21:18:01.550Z,1.87
2018-01-31T21:20:29.036Z,10.55
2018-01-31T21:22:56.470Z,2.57
2018-01-31T21:25:23.939Z,9.88
2018-01-31T21:27:51.424Z,3.57
2018-01-31T21:30:19.007Z,2.60
2018-01-31T21:32:46.437Z,1.63
2018-01-31T21:35:13.872Z,1.87
2018-01-31T21:37:41.313Z,1.80
2018-01-31T21:40:08.748Z,1.67
2018-01-31T21:42:36.221Z,1.92
2018-01-31T21:45:03.637Z,1.00
2018-01-31T21:47:31.067Z,3.28
2018-01-31T21:49:58.488Z,2.13
2018-01-31T21:52:25.928Z,2.07
2018-01-31T21:54:53.347Z,2.60
2018-01-31T21:57:20.972Z,1.40
2018-01-31T21:59:48.470Z,0.80
2018-01-31T22:02:15.903Z,1.53
2018-01-31T22:04:43.333Z,2.90
2018-01-31T22:07:10.765Z,1.23
2018-01-31T22:09:38.190Z,1.50
2018-01-31T22:12:05.624Z,3.28
2018-01-31T22:14:33.046Z,1.20
2018-01-31T22:17:00.491Z,2.17
2018-01-31T22:19:27.910Z,1.20
2018-01-31T22:21:55.353Z,1.20
2018-01-31T22:24:23.501Z,1.00
2018-01-31T22:26:51.088Z,1.12
2018-01-31T22:29:18.540Z,1.10
2018-01-31T22:31:45.970Z,1.20
2018-01-31T22:34:13.410Z,1.10
2018-01-31T22:36:40.858Z,1.30
2018-01-31T22:39:08.288Z,1.50
2018-01-31T22:41:35.700Z,1.20
2018-01-31T22:44:03.137Z,1.30
2018-01-31T22:46:30.580Z,1.20
2018-01-31T22:48:58.021Z,1.60
2018-01-31T22:51:25.428Z,1.30
2018-01-31T22:53:53.260Z,1.03
2018-01-31T22:56:21.189Z,1.25
2018-01-31T22:58:48.631Z,2.17
2018-01-31T23:01:16.182Z,1.98
2018-01-31T23:03:45.570Z,1.57
2018-01-31T23:06:13.010Z,1.30
2018-01-31T23:08:40.471Z,1.40
2018-01-31T23:11:07.895Z,1.57
2018-01-31T23:13:41.049Z,1.13
2018-01-31T23:16:08.496Z,2.05
2018-01-31T23:18:35.940Z,1.20
2018-01-31T23:21:03.372Z,1.73
2018-01-31T23:23:30.819Z,1.50
2018-01-31T23:25:58.242Z,2.23
2018-01-31T23:28:25.668Z,1.85
2018-01-31T23:30:53.407Z,2.17
2018-01-31T23:33:21.408Z,1.30
2018-01-31T23:35:48.890Z,2.10
2018-01-31T23:38:16.316Z,1.55
2018-01-31T23:40:43.747Z,1.10
2018-01-31T23:43:11.182Z,1.67
2018-01-31T23:45:38.620Z,1.17
2018-01-31T23:48:06.069Z,1.70
2018-01-31T23:50:33.524Z,1.50
2018-01-31T23:53:00.945Z,1.10
2018-01-31T23:55:28.417Z,0.95
2018-01-31T23:57:55.865Z,0.90
